createdAt,value
2022-10-16T00:03:02.227Z,15.16
2022-10-16T00:08:07.210Z,15.12
2022-10-16T00:13:14.652Z,15.05
2022-10-16T00:18:19.408Z,15.03
2022-10-16T00:23:24.928Z,14.99
2022-10-16T00:28:32.700Z,14.98
2022-10-16T00:33:37.779Z,14.97
2022-10-16T00:38:43.049Z,14.96
2022-10-16T00:43:53.131Z,14.98
2022-10-16T00:49:04.500Z,14.94
2022-10-16T00:54:14.155Z,14.90
2022-10-16T00:59:29.338Z,14.85
2022-10-16T01:04:42.622Z,14.85
2022-10-16T01:10:00.306Z,14.75
2022-10-16T01:15:15.890Z,14.75
2022-10-16T01:20:29.930Z,14.85
2022-10-16T01:25:48.452Z,14.82
2022-10-16T01:31:01.902Z,14.93
2022-10-16T01:36:14.045Z,14.90
2022-10-16T01:41:22.459Z,15.08
2022-10-16T01:46:30.820Z,15.17
2022-10-16T01:51:37.686Z,15.25
2022-10-16T01:56:43.693Z,15.34
2022-10-16T02:01:56.206Z,15.32
2022-10-16T02:07:01.471Z,15.38
2022-10-16T02:12:13.651Z,15.46
2022-10-16T02:17:22.024Z,15.47
2022-10-16T02:22:31.988Z,15.43
2022-10-16T02:27:42.531Z,15.37
2022-10-16T02:32:52.517Z,15.36
2022-10-16T02:37:59.164Z,15.41
2022-10-16T02:43:04.016Z,15.36
2022-10-16T02:48:11.592Z,15.41
2022-10-16T02:53:16.355Z,15.45
2022-10-16T02:58:21.187Z,15.43
2022-10-16T03:03:28.708Z,15.46
2022-10-16T03:08:33.522Z,15.42
2022-10-16T03:13:38.292Z,15.48
2022-10-16T03:18:45.628Z,15.50
2022-10-16T03:23:50.967Z,15.49
2022-10-16T03:28:55.821Z,15.50
2022-10-16T03:34:03.313Z,15.55
2022-10-16T03:39:08.063Z,15.53
2022-10-16T03:44:13.217Z,15.58
2022-10-16T03:49:20.957Z,15.56
2022-10-16T03:54:25.803Z,15.50
2022-10-16T03:59:30.600Z,15.58
2022-10-16T04:04:38.115Z,15.55
2022-10-16T04:09:43.069Z,15.57
2022-10-16T04:14:47.835Z,15.53
2022-10-16T04:19:55.603Z,15.41
2022-10-16T04:25:00.405Z,15.53
2022-10-16T04:30:05.244Z,15.56
2022-10-16T04:35:12.994Z,15.56
2022-10-16T04:40:18.104Z,15.58
2022-10-16T04:45:23.249Z,15.51
2022-10-16T04:50:30.761Z,15.61
2022-10-16T04:55:46.963Z,15.61
2022-10-16T05:00:51.852Z,15.49
2022-10-16T05:05:59.399Z,15.49
2022-10-16T05:11:04.400Z,15.33
2022-10-16T05:16:10.181Z,15.44
2022-10-16T05:21:17.641Z,15.56
2022-10-16T05:26:22.456Z,15.55
2022-10-16T05:31:27.407Z,15.59
2022-10-16T05:36:34.760Z,15.62
2022-10-16T05:41:39.605Z,15.62
2022-10-16T05:46:44.450Z,15.66
2022-10-16T05:51:51.879Z,15.64
2022-10-16T05:56:56.681Z,15.55
2022-10-16T06:02:01.543Z,15.69
2022-10-16T06:07:09.058Z,15.75
2022-10-16T06:12:13.843Z,15.69
2022-10-16T06:17:19.235Z,15.75
2022-10-16T06:22:26.561Z,15.86
2022-10-16T06:27:31.375Z,16.06
2022-10-16T06:32:36.213Z,16.16
2022-10-16T06:37:43.656Z,16.12
2022-10-16T06:42:48.566Z,16.17
2022-10-16T06:47:53.512Z,16.09
2022-10-16T06:53:00.873Z,16.20
2022-10-16T06:58:07.775Z,16.36
2022-10-16T07:03:12.516Z,16.55
2022-10-16T07:08:19.874Z,16.43
2022-10-16T07:13:24.764Z,16.87
2022-10-16T07:23:38.871Z,16.70
2022-10-16T07:28:43.704Z,16.61
2022-10-16T07:33:49.264Z,16.85
2022-10-16T07:38:59.021Z,17.09
2022-10-16T07:44:05.288Z,17.09
2022-10-16T07:49:10.263Z,17.09
2022-10-16T07:54:17.690Z,17.17
2022-10-16T07:59:22.534Z,17.31
2022-10-16T08:04:27.425Z,17.35
2022-10-16T08:09:34.845Z,17.36
2022-10-16T08:14:40.683Z,17.62
2022-10-16T08:19:49.354Z,17.83
2022-10-16T08:24:56.762Z,17.86
2022-10-16T08:30:01.618Z,17.91
2022-10-16T08:35:06.833Z,17.90
2022-10-16T08:40:22.005Z,17.96
2022-10-16T08:45:53.571Z,18.27
2022-10-16T08:50:58.674Z,18.29
2022-10-16T08:56:06.772Z,18.39
2022-10-16T09:01:17.330Z,19.21
2022-10-16T09:06:33.833Z,20.46
2022-10-16T09:11:50.287Z,22.64
2022-10-16T09:17:01.148Z,23.73
2022-10-16T09:22:14.512Z,23.08
2022-10-16T09:27:22.213Z,22.50
2022-10-16T09:32:27.366Z,25.74
2022-10-16T09:37:32.388Z,25.36
2022-10-16T09:42:41.337Z,23.03
2022-10-16T09:47:47.630Z,22.81
2022-10-16T09:52:52.540Z,23.39
2022-10-16T09:57:59.994Z,22.83
2022-10-16T10:03:04.890Z,23.06
2022-10-16T10:08:10.252Z,23.00
2022-10-16T10:13:25.655Z,24.26
2022-10-16T10:18:32.941Z,23.88
2022-10-16T10:23:38.306Z,23.66
2022-10-16T10:28:59.020Z,24.53
2022-10-16T10:34:17.943Z,24.00
2022-10-16T10:39:29.741Z,24.08
2022-10-16T10:44:57.401Z,24.24
2022-10-16T10:50:11.779Z,23.70
2022-10-16T10:55:25.617Z,23.44
2022-10-16T11:00:46.220Z,22.89
2022-10-16T11:05:53.970Z,23.33
2022-10-16T11:11:03.142Z,23.45
2022-10-16T11:16:21.380Z,23.20
2022-10-16T11:21:31.063Z,23.84
2022-10-16T11:26:39.616Z,22.94
2022-10-16T11:31:52.518Z,22.93
2022-10-16T11:37:02.609Z,22.84
2022-10-16T11:42:14.593Z,23.18
2022-10-16T11:47:57.637Z,23.45
2022-10-16T11:53:02.012Z,23.08
2022-10-16T11:58:12.526Z,22.36
2022-10-16T12:03:30.583Z,23.23
2022-10-16T12:08:38.293Z,23.10
2022-10-16T12:13:49.251Z,22.72
2022-10-16T12:19:13.664Z,22.59
2022-10-16T12:24:33.670Z,22.72
2022-10-16T12:29:41.569Z,23.14
2022-10-16T12:34:51.242Z,22.62
2022-10-16T12:39:58.430Z,22.56
2022-10-16T12:45:04.000Z,22.33
2022-10-16T12:50:34.782Z,22.19
2022-10-16T12:55:56.174Z,22.13
2022-10-16T13:01:02.904Z,22.45
2022-10-16T13:06:24.858Z,22.40
2022-10-16T13:11:52.543Z,22.31
2022-10-16T13:17:09.404Z,22.36
2022-10-16T13:22:25.482Z,22.41
2022-10-16T13:27:39.007Z,22.10
2022-10-16T13:32:50.988Z,21.84
2022-10-16T13:38:07.773Z,22.33
2022-10-16T13:43:13.380Z,22.03
2022-10-16T13:48:18.094Z,21.98
2022-10-16T13:53:25.561Z,21.86
2022-10-16T13:58:30.366Z,22.00
2022-10-16T14:03:38.064Z,21.87
2022-10-16T14:08:48.416Z,21.82
2022-10-16T14:13:54.286Z,21.68
2022-10-16T14:19:03.166Z,21.66
2022-10-16T14:24:26.410Z,21.69
2022-10-16T14:29:33.879Z,21.52
2022-10-16T14:34:41.351Z,21.74
2022-10-16T14:39:53.315Z,21.76
2022-10-16T14:44:59.775Z,21.88
2022-10-16T14:50:04.760Z,21.88
2022-10-16T14:55:13.569Z,21.44
2022-10-16T15:00:23.117Z,21.58
2022-10-16T15:05:29.985Z,21.20
2022-10-16T15:10:42.574Z,20.97
2022-10-16T15:15:50.219Z,20.83
2022-10-16T15:20:55.466Z,20.54
2022-10-16T15:26:03.399Z,20.67
2022-10-16T15:31:09.157Z,20.63
2022-10-16T15:36:14.024Z,20.52
2022-10-16T15:41:21.678Z,20.48
2022-10-16T15:46:28.940Z,20.52
2022-10-16T15:51:35.177Z,20.31
2022-10-16T15:56:42.558Z,20.11
2022-10-16T16:01:47.434Z,19.77
2022-10-16T16:06:52.370Z,19.60
2022-10-16T16:12:01.663Z,19.85
2022-10-16T16:17:06.454Z,19.85
2022-10-16T16:22:13.285Z,19.56
2022-10-16T16:27:21.065Z,19.62
2022-10-16T16:32:26.045Z,19.37
2022-10-16T16:37:31.019Z,19.22
2022-10-16T16:42:38.415Z,19.15
2022-10-16T16:47:43.593Z,19.09
2022-10-16T16:52:48.388Z,19.06
2022-10-16T16:57:55.723Z,18.87
2022-10-16T17:03:00.770Z,18.36
2022-10-16T17:08:06.285Z,18.30
2022-10-16T17:13:13.811Z,18.17
2022-10-16T17:18:19.020Z,18.27
2022-10-16T17:23:23.917Z,17.72
2022-10-16T17:28:31.617Z,18.04
2022-10-16T17:33:36.583Z,18.12
2022-10-16T17:38:41.959Z,18.04
2022-10-16T17:43:50.964Z,17.87
2022-10-16T17:48:57.618Z,17.92
2022-10-16T17:54:05.402Z,17.64
2022-10-16T17:59:14.381Z,17.45
2022-10-16T18:04:20.636Z,17.66
2022-10-16T18:09:25.642Z,17.65
2022-10-16T18:14:34.826Z,17.71
2022-10-16T18:19:40.115Z,17.27
2022-10-16T18:24:45.561Z,16.90
2022-10-16T18:29:56.672Z,17.23
2022-10-16T18:35:02.047Z,17.03
2022-10-16T18:40:19.505Z,17.06
2022-10-16T18:45:24.934Z,17.12
2022-10-16T18:50:30.313Z,17.19
2022-10-16T18:55:38.262Z,17.02
2022-10-16T19:00:43.577Z,17.02
2022-10-16T19:05:49.351Z,16.92
2022-10-16T19:10:57.388Z,16.51
2022-10-16T19:16:18.706Z,16.41
2022-10-16T19:21:26.212Z,16.16
2022-10-16T19:26:41.223Z,16.23
2022-10-16T19:31:47.212Z,16.35
2022-10-16T19:36:52.331Z,16.67
2022-10-16T19:41:59.903Z,16.48
2022-10-16T19:47:04.976Z,16.27
2022-10-16T19:52:09.863Z,16.15
2022-10-16T19:57:17.508Z,15.88
2022-10-16T20:02:25.011Z,15.84
2022-10-16T20:07:32.657Z,15.72
2022-10-16T20:12:42.974Z,15.64
2022-10-16T20:17:47.920Z,15.54
2022-10-16T20:22:53.957Z,15.64
2022-10-16T20:28:01.544Z,15.76
2022-10-16T20:33:08.496Z,15.85
2022-10-16T20:38:15.923Z,15.81
2022-10-16T20:43:23.437Z,15.72
2022-10-16T20:48:28.352Z,15.80
2022-10-16T20:53:34.913Z,15.63
2022-10-16T20:58:45.044Z,15.73
2022-10-16T21:03:53.578Z,15.70
2022-10-16T21:08:59.845Z,15.69
2022-10-16T21:14:09.091Z,15.53
2022-10-16T21:19:15.969Z,15.72
2022-10-16T21:24:20.888Z,15.77
2022-10-16T21:29:28.500Z,15.76
2022-10-16T21:34:33.712Z,15.68
2022-10-16T21:39:38.541Z,15.59
2022-10-16T21:44:45.941Z,15.51
2022-10-16T21:49:50.777Z,15.28
2022-10-16T21:54:56.059Z,15.19
2022-10-16T22:00:06.757Z,15.02
2022-10-16T22:05:13.748Z,15.15
2022-10-16T22:10:19.107Z,15.27
2022-10-16T22:15:26.796Z,15.06
2022-10-16T22:20:31.940Z,14.91
2022-10-16T22:25:36.967Z,14.89
2022-10-16T22:30:44.556Z,14.78
2022-10-16T22:35:49.288Z,14.90
2022-10-16T22:40:54.026Z,15.00
2022-10-16T22:46:05.204Z,14.97
2022-10-16T22:51:10.346Z,14.94
2022-10-16T22:56:16.948Z,14.68
2022-10-16T23:01:29.297Z,14.58
2022-10-16T23:06:34.351Z,14.52
2022-10-16T23:11:39.108Z,14.64
2022-10-16T23:16:46.544Z,14.57
2022-10-16T23:21:51.330Z,14.60
2022-10-16T23:26:56.229Z,14.54
2022-10-16T23:32:03.595Z,14.53
2022-10-16T23:37:08.421Z,14.51
2022-10-16T23:42:13.422Z,14.54
2022-10-16T23:47:20.839Z,14.55
2022-10-16T23:52:25.610Z,14.56
2022-10-16T23:57:30.801Z,14.61
